Time;durP1;ratioP1;P1;durP2;ratioP2;P2;SDS_P1;SDS_P2;PMS_P1;PMS_P2;Temp;Humidity;BMP_temperature;BMP_pressure;BME280_temperature;BME280_humidity;BME280_pressure;Samples;Min_cycle;Max_cycle;Signal;HPM_P1;HPM_P2
2021/08/09 00:01:19;;;;;;;10.65;6.78;;;;;;;;;;5130869;27;20031;-72
2021/08/09 00:03:44;;;;;;;12.70;8.20;;;;;;;;;;5131543;27;20019;-72
2021/08/09 00:06:09;;;;;;;10.57;7.55;;;;;;;;;;5128502;27;20027;-72
2021/08/09 00:08:35;;;;;;;13.80;7.43;;;;;;;;;;5128294;27;20061;-72
2021/08/09 00:11:00;;;;;;;18.63;8.32;;;;;;;;;;5126911;27;20027;-72
2021/08/09 00:13:26;;;;;;;11.05;7.57;;;;;;;;;;5132381;27;20059;-72
2021/08/09 00:15:52;;;;;;;10.43;7.53;;;;;;;;;;5110698;27;20537;-72
2021/08/09 00:18:18;;;;;;;12.02;7.53;;;;;;;;;;5112446;28;20498;-72
2021/08/09 00:20:43;;;;;;;9.43;7.00;;;;;;;;;;5131537;27;20019;-72
2021/08/09 00:23:09;;;;;;;12.65;7.70;;;;;;;;;;5133027;27;20458;-72
2021/08/09 00:25:35;;;;;;;13.02;7.40;;;;;;;;;;5126319;27;20019;-72
2021/08/09 00:28:00;;;;;;;15.85;8.02;;;;;;;;;;5132314;27;20027;-72
2021/08/09 00:30:26;;;;;;;12.88;8.05;;;;;;;;;;5127148;27;20030;-72
2021/08/09 00:32:51;;;;;;;13.20;8.02;;;;;;;;;;5122161;27;20027;-72
2021/08/09 00:35:17;;;;;;;15.05;8.02;;;;;;;;;;5122396;27;20023;-72
2021/08/09 00:37:42;;;;;;;13.98;7.97;;;;;;;;;;5131693;27;20038;-72
2021/08/09 00:40:09;;;;;;;12.27;7.85;;;;;;;;;;5131850;27;20114;-72
2021/08/09 00:42:34;;;;;;;10.00;8.05;;;;;;;;;;5131846;27;20385;-72
2021/08/09 00:45:00;;;;;;;12.50;6.93;;;;;;;;;;5131092;27;20106;-73
2021/08/09 00:47:25;;;;;;;11.88;7.10;;;;;;;;;;5128335;27;20475;-72
2021/08/09 00:49:51;;;;;;;11.95;7.03;;;;;;;;;;5127450;27;20055;-73
2021/08/09 00:52:17;;;;;;;9.65;6.68;;;;;;;;;;5130727;27;20110;-72
2021/08/09 00:54:42;;;;;;;8.18;6.75;;;;;;;;;;5132054;27;20038;-73
2021/08/09 00:57:08;;;;;;;12.73;7.03;;;;;;;;;;5129137;27;20471;-73
2021/08/09 00:59:35;;;;;;;10.00;6.97;;;;;;;;;;5119960;27;20074;-73
2021/08/09 01:02:00;;;;;;;9.43;6.88;;;;;;;;;;5122761;27;20423;-73
2021/08/09 01:04:26;;;;;;;12.40;7.07;;;;;;;;;;5130711;27;20107;-73
2021/08/09 01:06:51;;;;;;;10.45;7.32;;;;;;;;;;5131148;27;20132;-73
2021/08/09 01:09:23;;;;;;;10.20;7.03;;;;;;;;;;5131132;27;20227;-73
2021/08/09 01:12:12;;;;;;;9.18;7.00;;;;;;;;;;5114318;27;20023;-73
2021/08/09 01:14:52;;;;;;;10.15;7.38;;;;;;;;;;5111738;28;20023;-73
2021/08/09 01:17:21;;;;;;;13.10;7.63;;;;;;;;;;5118562;27;20034;-73
2021/08/09 01:19:50;;;;;;;10.32;7.72;;;;;;;;;;5131255;27;20034;-73
2021/08/09 01:22:32;;;;;;;10.88;7.05;;;;;;;;;;5131485;27;20470;-72
2021/08/09 01:25:07;;;;;;;12.50;6.90;;;;;;;;;;5131226;27;20034;-73
2021/08/09 01:27:36;;;;;;;9.60;7.38;;;;;;;;;;5125777;27;20076;-73
2021/08/09 01:30:05;;;;;;;10.38;7.53;;;;;;;;;;5131261;28;20075;-73
2021/08/09 01:32:34;;;;;;;11.98;7.15;;;;;;;;;;5130319;28;20019;-73
2021/08/09 01:35:02;;;;;;;9.07;7.00;;;;;;;;;;5130519;28;20399;-73
2021/08/09 01:37:29;;;;;;;10.50;7.00;;;;;;;;;;5131016;28;20360;-73
2021/08/09 01:39:55;;;;;;;12.45;7.03;;;;;;;;;;5131283;28;20028;-73
2021/08/09 01:42:21;;;;;;;7.95;6.78;;;;;;;;;;5121113;28;20383;-73
2021/08/09 01:44:47;;;;;;;10.45;7.28;;;;;;;;;;5127936;28;20061;-73
2021/08/09 01:47:13;;;;;;;9.38;7.15;;;;;;;;;;5127643;28;20023;-74
2021/08/09 01:49:39;;;;;;;11.52;6.90;;;;;;;;;;5129855;28;20074;-74
2021/08/09 01:52:07;;;;;;;13.40;6.30;;;;;;;;;;5131286;28;20027;-73
2021/08/09 01:54:33;;;;;;;7.95;6.28;;;;;;;;;;5119902;28;20023;-73
2021/08/09 01:56:59;;;;;;;8.30;6.47;;;;;;;;;;5122985;28;20348;-73
2021/08/09 01:59:24;;;;;;;9.88;5.85;;;;;;;;;;5131530;28;20027;-73
2021/08/09 02:01:51;;;;;;;10.77;6.55;;;;;;;;;;5129269;28;20023;-73
2021/08/09 02:04:16;;;;;;;13.52;6.60;;;;;;;;;;5131427;28;20031;-73
2021/08/09 02:06:43;;;;;;;9.38;6.13;;;;;;;;;;5125874;28;20028;-73
2021/08/09 02:09:10;;;;;;;8.63;6.28;;;;;;;;;;5110858;28;20015;-73
2021/08/09 02:11:59;;;;;;;11.68;6.55;;;;;;;;;;5128184;28;20579;-73
2021/08/09 02:14:28;;;;;;;12.52;6.50;;;;;;;;;;5116028;28;20024;-73
2021/08/09 02:17:10;;;;;;;13.88;6.35;;;;;;;;;;5115017;28;20049;-73
2021/08/09 02:20:00;;;;;;;14.15;7.05;;;;;;;;;;5129783;28;20576;-73
2021/08/09 02:22:37;;;;;;;12.77;7.18;;;;;;;;;;5120982;28;20035;-73
2021/08/09 02:25:07;;;;;;;10.52;7.35;;;;;;;;;;5119945;28;20034;-73
2021/08/09 02:27:39;;;;;;;10.75;7.60;;;;;;;;;;5131222;28;20027;-73
2021/08/09 02:30:06;;;;;;;11.13;7.57;;;;;;;;;;5132462;27;20038;-73
2021/08/09 02:32:33;;;;;;;12.15;7.80;;;;;;;;;;5130502;27;20039;-73
2021/08/09 02:35:00;;;;;;;14.32;8.00;;;;;;;;;;5119492;27;20046;-73
2021/08/09 02:37:27;;;;;;;13.18;8.32;;;;;;;;;;5123792;27;20023;-73
2021/08/09 02:39:54;;;;;;;12.77;8.48;;;;;;;;;;5134621;27;20031;-73
2021/08/09 02:42:20;;;;;;;16.67;8.40;;;;;;;;;;5134329;27;20105;-73
2021/08/09 02:44:47;;;;;;;16.23;8.77;;;;;;;;;;5133979;27;20031;-73
2021/08/09 02:47:13;;;;;;;14.68;8.32;;;;;;;;;;5134420;27;20466;-73
2021/08/09 02:49:46;;;;;;;12.75;8.20;;;;;;;;;;5133805;27;20463;-73
2021/08/09 02:52:11;;;;;;;11.68;8.50;;;;;;;;;;5133700;27;20030;-73
2021/08/09 02:54:37;;;;;;;11.90;8.35;;;;;;;;;;5131437;27;20039;-73
2021/08/09 02:57:04;;;;;;;12.80;8.57;;;;;;;;;;5133550;27;20375;-73
2021/08/09 02:59:29;;;;;;;12.00;7.63;;;;;;;;;;5133821;27;20033;-73
2021/08/09 03:01:56;;;;;;;10.50;7.43;;;;;;;;;;5132429;27;20019;-73
2021/08/09 03:04:22;;;;;;;9.00;6.65;;;;;;;;;;5133596;27;20027;-72
2021/08/09 03:06:51;;;;;;;11.43;6.82;;;;;;;;;;5133456;27;20023;-73
2021/08/09 03:09:16;;;;;;;8.98;6.60;;;;;;;;;;5128295;27;20459;-73
2021/08/09 03:11:42;;;;;;;11.07;6.72;;;;;;;;;;5127469;27;20055;-73
2021/08/09 03:14:24;;;;;;;8.32;6.40;;;;;;;;;;5131449;27;20050;-73
2021/08/09 03:16:51;;;;;;;11.05;6.90;;;;;;;;;;5133240;27;20027;-73
2021/08/09 03:19:17;;;;;;;9.25;6.72;;;;;;;;;;5123750;27;20373;-73
2021/08/09 03:21:53;;;;;;;8.57;6.10;;;;;;;;;;5131119;27;20114;-72
2021/08/09 03:24:19;;;;;;;9.50;5.95;;;;;;;;;;5129270;27;20478;-72
2021/08/09 03:26:45;;;;;;;8.10;5.30;;;;;;;;;;5133484;27;20027;-73
2021/08/09 03:29:11;;;;;;;7.55;5.35;;;;;;;;;;5121436;27;20035;-73
2021/08/09 03:31:37;;;;;;;9.75;5.32;;;;;;;;;;5117659;27;20364;-73
2021/08/09 03:34:02;;;;;;;7.45;5.75;;;;;;;;;;5131784;27;20023;-73
2021/08/09 03:36:28;;;;;;;8.10;5.45;;;;;;;;;;5132516;27;20035;-73
2021/08/09 03:38:53;;;;;;;10.48;5.70;;;;;;;;;;5129701;27;20072;-73
2021/08/09 03:41:19;;;;;;;9.55;6.30;;;;;;;;;;5130638;27;20023;-73
2021/08/09 03:43:45;;;;;;;10.85;6.38;;;;;;;;;;5123618;27;20486;-73
2021/08/09 03:46:10;;;;;;;9.73;5.75;;;;;;;;;;5129081;27;20111;-72
2021/08/09 03:48:36;;;;;;;9.63;6.28;;;;;;;;;;5114911;27;20034;-72
2021/08/09 03:51:01;;;;;;;8.18;6.32;;;;;;;;;;5111512;28;20032;-72
2021/08/09 03:53:27;;;;;;;8.27;5.47;;;;;;;;;;5130922;27;20018;-72
2021/08/09 03:55:52;;;;;;;6.78;5.15;;;;;;;;;;5130471;27;20118;-72
2021/08/09 03:58:18;;;;;;;7.43;5.10;;;;;;;;;;5131616;27;20051;-72
2021/08/09 04:00:43;;;;;;;7.07;5.68;;;;;;;;;;5132302;27;20031;-72
2021/08/09 04:03:09;;;;;;;7.53;5.30;;;;;;;;;;5128018;27;20038;-72
2021/08/09 04:05:34;;;;;;;7.68;5.75;;;;;;;;;;5114466;27;20030;-72
2021/08/09 04:08:00;;;;;;;7.45;5.15;;;;;;;;;;5128538;27;20035;-72
2021/08/09 04:10:25;;;;;;;8.63;4.90;;;;;;;;;;5128052;27;20024;-72
2021/08/09 04:12:51;;;;;;;8.05;4.93;;;;;;;;;;5115155;27;20513;-72
2021/08/09 04:15:17;;;;;;;5.93;4.45;;;;;;;;;;5133870;27;20027;-72
2021/08/09 04:17:44;;;;;;;4.97;4.40;;;;;;;;;;5129672;27;20030;-72
2021/08/09 04:20:10;;;;;;;5.25;4.53;;;;;;;;;;5121864;27;20054;-72
2021/08/09 04:22:35;;;;;;;9.15;4.32;;;;;;;;;;5124802;27;20414;-72
2021/08/09 04:25:02;;;;;;;6.95;4.90;;;;;;;;;;5125902;27;20026;-72
2021/08/09 04:27:27;;;;;;;13.20;4.82;;;;;;;;;;5129660;27;20028;-72
2021/08/09 04:29:53;;;;;;;8.73;5.00;;;;;;;;;;5122150;27;20019;-72
2021/08/09 04:32:19;;;;;;;4.88;4.28;;;;;;;;;;5132317;27;20489;-72
2021/08/09 04:34:45;;;;;;;4.38;3.75;;;;;;;;;;5125487;27;20023;-72
2021/08/09 04:37:12;;;;;;;8.27;4.30;;;;;;;;;;5126679;27;20031;-72
2021/08/09 04:39:38;;;;;;;5.63;3.60;;;;;;;;;;5132493;27;20493;-72
2021/08/09 04:42:04;;;;;;;6.72;3.50;;;;;;;;;;5129024;27;20019;-72
2021/08/09 04:44:30;;;;;;;5.18;3.20;;;;;;;;;;5127721;27;20065;-72
2021/08/09 04:46:57;;;;;;;5.00;3.22;;;;;;;;;;5131528;27;20474;-72
2021/08/09 04:49:26;;;;;;;7.32;3.30;;;;;;;;;;5131394;27;20072;-72
2021/08/09 04:51:53;;;;;;;4.82;3.35;;;;;;;;;;5116906;27;20034;-72
2021/08/09 04:54:18;;;;;;;4.10;3.05;;;;;;;;;;5123621;27;20026;-73
2021/08/09 04:56:45;;;;;;;7.05;3.08;;;;;;;;;;5131779;27;20023;-72
2021/08/09 04:59:10;;;;;;;3.30;2.78;;;;;;;;;;5120022;27;20033;-72
2021/08/09 05:01:36;;;;;;;3.85;2.95;;;;;;;;;;5129176;27;20023;-72
2021/08/09 05:04:02;;;;;;;4.78;3.20;;;;;;;;;;5117015;27;20030;-72
2021/08/09 05:06:28;;;;;;;3.88;2.67;;;;;;;;;;5116124;27;20019;-72
2021/08/09 05:08:53;;;;;;;4.28;3.17;;;;;;;;;;5117308;27;20027;-72
2021/08/09 05:11:20;;;;;;;3.85;2.67;;;;;;;;;;5130953;27;20444;-72
2021/08/09 05:13:45;;;;;;;4.32;2.80;;;;;;;;;;5122239;27;20023;-72
2021/08/09 05:16:11;;;;;;;3.83;2.63;;;;;;;;;;5111505;28;20027;-72
2021/08/09 05:18:36;;;;;;;5.32;2.65;;;;;;;;;;5116352;27;20443;-73
2021/08/09 05:21:02;;;;;;;4.30;2.40;;;;;;;;;;5130933;27;20015;-72
2021/08/09 05:23:27;;;;;;;5.80;3.08;;;;;;;;;;5129989;27;20019;-73
2021/08/09 05:25:53;;;;;;;4.03;2.40;;;;;;;;;;5131770;27;20056;-73
2021/08/09 05:28:18;;;;;;;5.47;2.67;;;;;;;;;;5122709;27;20094;-73
2021/08/09 05:30:45;;;;;;;3.90;2.78;;;;;;;;;;5125286;28;20019;-72
2021/08/09 05:33:11;;;;;;;4.32;2.40;;;;;;;;;;5129430;28;20379;-73
2021/08/09 05:35:37;;;;;;;3.28;2.40;;;;;;;;;;5129587;28;20034;-73
2021/08/09 05:38:03;;;;;;;5.45;2.63;;;;;;;;;;5130629;28;20019;-73
2021/08/09 05:40:28;;;;;;;4.72;2.40;;;;;;;;;;5123149;28;20041;-73
2021/08/09 05:42:54;;;;;;;4.40;2.80;;;;;;;;;;5121567;28;20047;-73
2021/08/09 05:45:21;;;;;;;5.43;2.30;;;;;;;;;;5126134;28;20450;-72
2021/08/09 05:47:46;;;;;;;5.13;2.50;;;;;;;;;;5130181;28;20039;-72
2021/08/09 05:50:12;;;;;;;3.25;2.22;;;;;;;;;;5128409;28;20123;-73
2021/08/09 05:52:38;;;;;;;4.95;2.22;;;;;;;;;;5130420;28;20394;-72
2021/08/09 05:55:06;;;;;;;3.28;2.20;;;;;;;;;;5130045;28;20537;-72
2021/08/09 05:57:32;;;;;;;4.78;2.28;;;;;;;;;;5130351;28;20059;-73
2021/08/09 05:59:58;;;;;;;3.75;2.53;;;;;;;;;;5115233;28;20027;-73
2021/08/09 06:02:23;;;;;;;4.35;2.50;;;;;;;;;;5123938;28;20494;-72
2021/08/09 06:04:49;;;;;;;4.38;2.42;;;;;;;;;;5121024;27;20034;-72
2021/08/09 06:07:17;;;;;;;3.92;2.25;;;;;;;;;;5124095;27;20016;-72
2021/08/09 06:09:44;;;;;;;2.85;2.42;;;;;;;;;;5127917;27;20027;-72
2021/08/09 06:12:10;;;;;;;6.90;2.60;;;;;;;;;;5132734;27;20475;-72
2021/08/09 06:14:36;;;;;;;4.82;2.33;;;;;;;;;;5128265;27;20031;-72
2021/08/09 06:17:02;;;;;;;3.42;2.38;;;;;;;;;;5133258;27;20069;-72
2021/08/09 06:19:28;;;;;;;4.25;2.17;;;;;;;;;;5134388;27;20031;-72
2021/08/09 06:21:54;;;;;;;3.05;2.20;;;;;;;;;;5134756;27;20015;-72
2021/08/09 06:24:21;;;;;;;5.55;2.70;;;;;;;;;;5131784;27;20027;-72
2021/08/09 06:26:47;;;;;;;4.47;2.72;;;;;;;;;;5115619;27;20023;-71
2021/08/09 06:29:12;;;;;;;5.43;2.63;;;;;;;;;;5129749;27;20179;-71
2021/08/09 06:31:38;;;;;;;3.60;2.05;;;;;;;;;;5133220;27;20429;-72
2021/08/09 06:34:03;;;;;;;7.20;2.90;;;;;;;;;;5131306;27;20027;-71
2021/08/09 06:36:29;;;;;;;5.05;2.38;;;;;;;;;;5129078;27;20383;-71
2021/08/09 06:38:54;;;;;;;8.13;2.70;;;;;;;;;;5129286;27;20379;-71
2021/08/09 06:41:21;;;;;;;4.75;2.50;;;;;;;;;;5133420;27;20419;-71
2021/08/09 06:43:48;;;;;;;5.38;2.50;;;;;;;;;;5126001;27;20043;-70
2021/08/09 06:46:14;;;;;;;6.60;2.90;;;;;;;;;;5129860;27;20024;-71
2021/08/09 06:48:40;;;;;;;3.60;2.45;;;;;;;;;;5125873;27;20038;-71
2021/08/09 06:51:05;;;;;;;4.05;2.08;;;;;;;;;;5118213;27;20024;-71
2021/08/09 06:53:31;;;;;;;5.90;2.35;;;;;;;;;;5126353;27;20051;-71
2021/08/09 06:55:56;;;;;;;2.83;2.15;;;;;;;;;;5132769;27;20080;-71
2021/08/09 06:58:21;;;;;;;5.93;2.20;;;;;;;;;;5123917;27;20026;-71
2021/08/09 07:00:47;;;;;;;6.88;2.10;;;;;;;;;;5133525;27;20050;-71
2021/08/09 07:03:13;;;;;;;4.50;2.20;;;;;;;;;;5134480;27;20023;-71
2021/08/09 07:05:43;;;;;;;3.92;2.20;;;;;;;;;;5133536;27;20015;-70
2021/08/09 07:08:09;;;;;;;5.78;2.33;;;;;;;;;;5132780;27;20023;-71
2021/08/09 07:10:34;;;;;;;4.50;2.15;;;;;;;;;;5133629;27;20429;-70
2021/08/09 07:13:00;;;;;;;4.18;2.28;;;;;;;;;;5107989;28;20031;-71
2021/08/09 07:15:25;;;;;;;4.05;2.05;;;;;;;;;;5118873;27;20023;-71
2021/08/09 07:17:52;;;;;;;3.88;2.35;;;;;;;;;;5127407;27;20050;-70
2021/08/09 07:20:17;;;;;;;5.32;2.20;;;;;;;;;;5126667;27;20023;-71
2021/08/09 07:22:45;;;;;;;7.22;2.60;;;;;;;;;;5130215;27;20076;-71
2021/08/09 07:25:12;;;;;;;5.55;2.20;;;;;;;;;;5134856;27;20465;-72
2021/08/09 07:27:38;;;;;;;4.63;2.40;;;;;;;;;;5134915;27;21624;-71
2021/08/09 07:30:05;;;;;;;4.82;2.78;;;;;;;;;;5133547;27;20027;-71
2021/08/09 07:32:34;;;;;;;6.10;2.50;;;;;;;;;;5120412;27;20032;-71
2021/08/09 07:34:59;;;;;;;4.65;2.17;;;;;;;;;;5128017;27;20015;-71
2021/08/09 07:37:25;;;;;;;5.10;2.42;;;;;;;;;;5127892;27;20027;-71
2021/08/09 07:39:50;;;;;;;3.22;2.00;;;;;;;;;;5133179;27;20023;-71
2021/08/09 07:42:16;;;;;;;4.38;2.13;;;;;;;;;;5133847;27;20103;-71
2021/08/09 07:44:41;;;;;;;5.10;2.17;;;;;;;;;;5143078;27;20025;-71
2021/08/09 07:47:08;;;;;;;4.68;1.90;;;;;;;;;;5127297;27;20012;-70
2021/08/09 07:49:33;;;;;;;3.65;2.03;;;;;;;;;;5123848;27;20047;-71
2021/08/09 07:51:59;;;;;;;6.50;2.20;;;;;;;;;;5125597;27;20365;-71
2021/08/09 07:54:25;;;;;;;5.60;2.42;;;;;;;;;;5126353;27;20027;-71
2021/08/09 07:56:52;;;;;;;6.28;2.28;;;;;;;;;;5124181;27;20050;-71
2021/08/09 07:59:21;;;;;;;5.43;2.45;;;;;;;;;;5131225;27;20027;-71
2021/08/09 08:01:46;;;;;;;5.45;2.38;;;;;;;;;;5125990;27;20023;-69
2021/08/09 08:04:12;;;;;;;4.75;2.50;;;;;;;;;;5124121;27;20034;-70
2021/08/09 08:06:37;;;;;;;4.65;2.05;;;;;;;;;;5127956;27;20026;-70
2021/08/09 08:09:03;;;;;;;6.63;2.40;;;;;;;;;;5114602;27;20031;-69
2021/08/09 08:11:28;;;;;;;6.35;2.80;;;;;;;;;;5121066;27;20088;-69
2021/08/09 08:13:54;;;;;;;7.82;2.22;;;;;;;;;;5129545;27;20032;-70
2021/08/09 08:16:20;;;;;;;6.30;2.22;;;;;;;;;;5130436;27;20469;-69
2021/08/09 08:18:47;;;;;;;8.23;2.88;;;;;;;;;;5131468;27;20026;-69
2021/08/09 08:21:13;;;;;;;6.82;2.63;;;;;;;;;;5111987;27;20456;-70
2021/08/09 08:23:38;;;;;;;4.90;2.28;;;;;;;;;;5114726;27;20023;-71
2021/08/09 08:26:04;;;;;;;6.63;3.15;;;;;;;;;;5131997;27;20030;-71
2021/08/09 08:28:36;;;;;;;5.50;2.92;;;;;;;;;;5131290;27;20027;-72
2021/08/09 08:31:03;;;;;;;5.82;2.70;;;;;;;;;;5114280;27;20521;-71
2021/08/09 08:33:29;;;;;;;6.93;2.95;;;;;;;;;;5113370;27;20031;-72
2021/08/09 08:35:54;;;;;;;7.82;3.30;;;;;;;;;;5132130;27;20023;-73
2021/08/09 08:38:20;;;;;;;9.02;3.45;;;;;;;;;;5130424;27;20026;-72
2021/08/09 08:40:48;;;;;;;9.20;3.22;;;;;;;;;;5130417;27;20034;-72
2021/08/09 08:43:25;;;;;;;7.97;3.40;;;;;;;;;;5119220;27;20510;-72
2021/08/09 08:45:56;;;;;;;7.43;3.88;;;;;;;;;;5110406;28;20088;-73
2021/08/09 08:48:23;;;;;;;7.60;3.20;;;;;;;;;;5127027;27;20524;-72
2021/08/09 08:50:50;;;;;;;13.30;3.55;;;;;;;;;;5132161;27;20498;-72
2021/08/09 08:53:15;;;;;;;6.22;2.97;;;;;;;;;;5132505;27;20432;-70
2021/08/09 08:55:41;;;;;;;8.05;2.95;;;;;;;;;;5132549;27;20087;-72
2021/08/09 08:58:06;;;;;;;5.55;3.00;;;;;;;;;;5130237;27;20019;-70
2021/08/09 09:00:42;;;;;;;7.55;2.60;;;;;;;;;;5131080;27;20023;-70
2021/08/09 09:03:22;;;;;;;6.93;2.58;;;;;;;;;;5132133;27;20030;-72
2021/08/09 09:06:03;;;;;;;9.85;2.70;;;;;;;;;;5132276;27;20080;-71
2021/08/09 09:08:46;;;;;;;8.18;3.08;;;;;;;;;;5131231;27;20027;-71
2021/08/09 09:11:32;;;;;;;7.93;2.90;;;;;;;;;;5132110;27;20147;-71
2021/08/09 09:14:03;;;;;;;6.78;3.05;;;;;;;;;;5130879;27;20027;-70
2021/08/09 09:16:56;;;;;;;8.10;2.70;;;;;;;;;;5131684;27;20035;-70
2021/08/09 09:19:28;;;;;;;7.82;2.45;;;;;;;;;;5128432;27;20073;-71
2021/08/09 09:21:54;;;;;;;9.63;2.90;;;;;;;;;;5132337;27;20522;-70
2021/08/09 09:24:21;;;;;;;7.70;2.67;;;;;;;;;;5131728;27;20027;-70
2021/08/09 09:26:56;;;;;;;4.63;2.33;;;;;;;;;;5131584;27;20068;-70
2021/08/09 09:29:23;;;;;;;6.65;2.50;;;;;;;;;;5131405;27;20023;-70
2021/08/09 09:31:50;;;;;;;6.70;2.80;;;;;;;;;;5130307;27;20054;-70
2021/08/09 09:34:18;;;;;;;9.80;2.70;;;;;;;;;;5131299;28;20026;-70
2021/08/09 09:36:55;;;;;;;6.45;2.20;;;;;;;;;;5131337;27;20023;-70
2021/08/09 09:39:29;;;;;;;6.60;2.33;;;;;;;;;;5133177;27;20027;-71
2021/08/09 09:41:59;;;;;;;8.93;2.60;;;;;;;;;;5135016;27;20409;-70
2021/08/09 09:44:26;;;;;;;6.50;2.17;;;;;;;;;;5135478;27;20019;-71
2021/08/09 09:46:53;;;;;;;8.02;2.58;;;;;;;;;;5135652;27;20401;-70
2021/08/09 09:49:34;;;;;;;6.18;2.60;;;;;;;;;;5134894;27;20050;-70
2021/08/09 09:52:00;;;;;;;10.05;2.72;;;;;;;;;;5135999;27;20023;-70
2021/08/09 09:54:27;;;;;;;7.30;2.60;;;;;;;;;;5135913;27;20360;-70
2021/08/09 09:56:56;;;;;;;6.45;2.83;;;;;;;;;;5135799;27;20030;-71
2021/08/09 09:59:26;;;;;;;8.23;2.70;;;;;;;;;;5135204;27;20475;-69
2021/08/09 10:01:52;;;;;;;11.70;2.80;;;;;;;;;;5117176;27;20565;-71
2021/08/09 10:04:18;;;;;;;11.02;2.60;;;;;;;;;;5135356;27;20114;-71
2021/08/09 10:06:44;;;;;;;7.82;2.70;;;;;;;;;;5135622;27;20011;-70
2021/08/09 10:09:11;;;;;;;7.45;2.38;;;;;;;;;;5135538;27;20068;-70
2021/08/09 10:11:41;;;;;;;9.07;2.60;;;;;;;;;;5135239;27;20030;-69
2021/08/09 10:14:08;;;;;;;7.95;2.50;;;;;;;;;;5135313;27;20023;-70
2021/08/09 10:16:35;;;;;;;9.73;2.30;;;;;;;;;;5135116;27;20051;-70
2021/08/09 10:19:02;;;;;;;7.00;2.33;;;;;;;;;;5135085;27;20106;-70
2021/08/09 10:21:31;;;;;;;9.35;2.53;;;;;;;;;;5135329;27;20107;-69
2021/08/09 10:23:57;;;;;;;6.43;2.20;;;;;;;;;;5135140;27;20035;-69
2021/08/09 10:26:32;;;;;;;7.63;2.67;;;;;;;;;;5135020;27;20037;-70
2021/08/09 10:29:06;;;;;;;9.43;2.55;;;;;;;;;;5134189;27;20276;-69
2021/08/09 10:31:39;;;;;;;9.75;2.53;;;;;;;;;;5134520;27;20054;-70
2021/08/09 10:34:29;;;;;;;8.43;2.40;;;;;;;;;;5120671;27;20475;-70
2021/08/09 10:37:07;;;;;;;10.82;2.45;;;;;;;;;;5134647;27;20023;-70
2021/08/09 10:39:56;;;;;;;10.57;2.65;;;;;;;;;;5133837;27;20402;-70
2021/08/09 10:42:37;;;;;;;8.52;2.53;;;;;;;;;;5133913;27;20023;-70
2021/08/09 10:45:09;;;;;;;9.98;3.13;;;;;;;;;;5134774;27;20050;-69
2021/08/09 10:47:52;;;;;;;8.43;2.60;;;;;;;;;;5121309;27;20019;-69
2021/08/09 10:50:24;;;;;;;9.68;3.28;;;;;;;;;;5132758;27;20039;-70
2021/08/09 10:52:50;;;;;;;7.13;2.53;;;;;;;;;;5134762;27;20038;-69
2021/08/09 10:55:31;;;;;;;6.97;2.60;;;;;;;;;;5134685;27;20023;-69
2021/08/09 10:58:00;;;;;;;7.28;2.72;;;;;;;;;;5134527;27;20156;-69
2021/08/09 11:00:38;;;;;;;6.20;2.78;;;;;;;;;;5131430;27;20403;-69
2021/08/09 11:03:19;;;;;;;9.57;2.75;;;;;;;;;;5131153;27;20019;-69
2021/08/09 11:05:45;;;;;;;7.97;2.97;;;;;;;;;;5134234;27;20034;-68
2021/08/09 11:08:14;;;;;;;7.80;2.95;;;;;;;;;;5135177;27;20031;-69
2021/08/09 11:10:54;;;;;;;6.40;2.83;;;;;;;;;;5135133;27;20676;-69
2021/08/09 11:13:22;;;;;;;6.78;2.65;;;;;;;;;;5134815;27;20027;-69
2021/08/09 11:15:54;;;;;;;9.15;2.88;;;;;;;;;;5135026;27;20035;-68
2021/08/09 11:18:20;;;;;;;7.45;2.72;;;;;;;;;;5130586;27;20034;-68
2021/08/09 11:20:46;;;;;;;6.85;2.50;;;;;;;;;;5134434;27;20042;-69
2021/08/09 11:23:15;;;;;;;8.70;2.63;;;;;;;;;;5134552;27;20027;-68
2021/08/09 11:25:47;;;;;;;7.30;2.67;;;;;;;;;;5130076;27;20019;-68
2021/08/09 11:28:24;;;;;;;9.05;2.60;;;;;;;;;;5133581;27;20020;-69
2021/08/09 11:30:51;;;;;;;5.90;2.28;;;;;;;;;;5131972;27;20046;-68
2021/08/09 11:33:39;;;;;;;7.55;1.95;;;;;;;;;;5133418;27;20035;-68
2021/08/09 11:36:13;;;;;;;4.35;1.60;;;;;;;;;;5133935;27;20030;-68
2021/08/09 11:38:47;;;;;;;6.32;1.80;;;;;;;;;;5132715;27;20039;-69
2021/08/09 11:41:16;;;;;;;4.10;1.63;;;;;;;;;;5133889;27;20412;-69
2021/08/09 11:43:42;;;;;;;4.53;1.38;;;;;;;;;;5133050;27;20031;-69
2021/08/09 11:46:13;;;;;;;7.20;1.88;;;;;;;;;;5134024;27;20022;-68
2021/08/09 11:48:41;;;;;;;6.10;1.60;;;;;;;;;;5133251;27;20042;-68
2021/08/09 11:51:21;;;;;;;6.75;1.70;;;;;;;;;;5132968;27;20036;-68
2021/08/09 11:53:51;;;;;;;9.20;2.13;;;;;;;;;;5132846;27;20059;-68
2021/08/09 11:56:21;;;;;;;7.15;2.13;;;;;;;;;;5132968;27;20027;-68
2021/08/09 11:58:47;;;;;;;10.02;3.00;;;;;;;;;;5133433;27;20488;-68
2021/08/09 12:01:36;;;;;;;6.95;2.70;;;;;;;;;;5133519;27;20047;-68
2021/08/09 12:04:02;;;;;;;6.80;3.20;;;;;;;;;;5132634;27;20035;-68
2021/08/09 12:06:28;;;;;;;9.25;3.15;;;;;;;;;;5132770;27;20030;-69
2021/08/09 12:08:55;;;;;;;7.45;2.65;;;;;;;;;;5114041;27;20031;-68
2021/08/09 12:11:30;;;;;;;5.93;2.72;;;;;;;;;;5131269;27;20461;-69
2021/08/09 12:14:04;;;;;;;8.25;2.97;;;;;;;;;;5128209;27;20129;-70
2021/08/09 12:16:57;;;;;;;8.07;2.85;;;;;;;;;;5123025;27;20060;-71
2021/08/09 12:19:45;;;;;;;7.63;2.80;;;;;;;;;;5133212;27;20031;-69
2021/08/09 12:22:14;;;;;;;10.05;3.45;;;;;;;;;;5132995;27;20087;-68
2021/08/09 12:24:41;;;;;;;7.75;2.83;;;;;;;;;;5132683;27;20031;-70
2021/08/09 12:27:21;;;;;;;7.55;2.88;;;;;;;;;;5133042;27;20030;-69
2021/08/09 12:29:59;;;;;;;7.55;2.83;;;;;;;;;;5132649;27;20027;-69
2021/08/09 12:32:27;;;;;;;7.03;2.80;;;;;;;;;;5132843;27;20054;-68
2021/08/09 12:34:52;;;;;;;6.57;2.83;;;;;;;;;;5133070;27;20538;-69
2021/08/09 12:37:18;;;;;;;6.82;2.35;;;;;;;;;;5133054;27;20019;-69
2021/08/09 12:39:44;;;;;;;11.48;2.83;;;;;;;;;;5132648;27;20023;-70
2021/08/09 12:42:21;;;;;;;6.80;2.70;;;;;;;;;;5121467;27;20031;-69
2021/08/09 12:44:50;;;;;;;7.18;2.30;;;;;;;;;;5123046;27;20114;-70
2021/08/09 12:47:16;;;;;;;8.93;2.60;;;;;;;;;;5133612;27;20048;-69
2021/08/09 12:49:42;;;;;;;6.53;2.40;;;;;;;;;;5130806;27;20163;-69
2021/08/09 12:52:09;;;;;;;7.07;2.38;;;;;;;;;;5130593;27;20034;-69
2021/08/09 12:54:36;;;;;;;6.13;2.30;;;;;;;;;;5132724;27;20068;-69
2021/08/09 12:57:02;;;;;;;8.48;2.00;;;;;;;;;;5133375;27;20027;-69
2021/08/09 12:59:27;;;;;;;4.90;2.15;;;;;;;;;;5133048;27;20027;-69
2021/08/09 13:01:56;;;;;;;5.55;2.15;;;;;;;;;;5133175;27;20038;-69
2021/08/09 13:04:21;;;;;;;6.85;2.22;;;;;;;;;;5132553;27;20382;-69
2021/08/09 13:06:47;;;;;;;7.20;1.80;;;;;;;;;;5132345;27;20046;-69
2021/08/09 13:09:13;;;;;;;5.60;2.15;;;;;;;;;;5131845;27;20489;-69
2021/08/09 13:11:39;;;;;;;4.85;2.15;;;;;;;;;;5132082;27;20451;-70
2021/08/09 13:14:05;;;;;;;5.80;2.05;;;;;;;;;;5133178;27;20472;-70
2021/08/09 13:16:33;;;;;;;6.85;2.08;;;;;;;;;;5132674;27;20042;-70
2021/08/09 13:19:00;;;;;;;6.10;2.20;;;;;;;;;;5133254;27;20027;-70
2021/08/09 13:21:25;;;;;;;7.10;2.10;;;;;;;;;;5132336;27;20038;-70
2021/08/09 13:23:52;;;;;;;7.03;2.28;;;;;;;;;;5132591;27;20371;-69
2021/08/09 13:26:17;;;;;;;6.07;2.17;;;;;;;;;;5133468;27;20019;-70
2021/08/09 13:28:43;;;;;;;7.65;2.10;;;;;;;;;;5132720;27;20019;-69
2021/08/09 13:31:10;;;;;;;5.30;1.90;;;;;;;;;;5131462;27;20038;-69
2021/08/09 13:33:35;;;;;;;7.38;2.65;;;;;;;;;;5131711;27;20503;-69
2021/08/09 13:36:01;;;;;;;7.22;2.28;;;;;;;;;;5131538;27;20031;-69
2021/08/09 13:38:27;;;;;;;6.43;2.42;;;;;;;;;;5129842;28;20027;-69
2021/08/09 13:40:52;;;;;;;6.07;1.98;;;;;;;;;;5131725;28;20051;-69
2021/08/09 13:43:18;;;;;;;6.30;2.20;;;;;;;;;;5131974;28;20053;-69
2021/08/09 13:45:45;;;;;;;7.43;2.20;;;;;;;;;;5131261;28;20076;-69
2021/08/09 13:48:10;;;;;;;7.20;2.03;;;;;;;;;;5115731;28;20066;-70
2021/08/09 13:50:35;;;;;;;6.40;2.05;;;;;;;;;;5131484;28;20062;-69
2021/08/09 13:53:01;;;;;;;5.50;1.75;;;;;;;;;;5131590;28;20030;-69
2021/08/09 13:55:26;;;;;;;7.10;2.08;;;;;;;;;;5131627;28;20026;-70
2021/08/09 13:57:52;;;;;;;5.60;1.70;;;;;;;;;;5131122;28;20434;-70
2021/08/09 14:00:19;;;;;;;3.90;1.80;;;;;;;;;;5131350;28;20634;-70
2021/08/09 14:02:44;;;;;;;7.13;2.03;;;;;;;;;;5130887;28;20027;-71
2021/08/09 14:05:11;;;;;;;4.20;1.77;;;;;;;;;;5122467;28;20083;-71
2021/08/09 14:07:38;;;;;;;5.03;2.17;;;;;;;;;;5128551;28;20027;-70
2021/08/09 14:10:09;;;;;;;3.08;1.50;;;;;;;;;;5131757;28;20027;-70
2021/08/09 14:12:41;;;;;;;5.03;1.83;;;;;;;;;;5131038;28;20019;-70
2021/08/09 14:15:08;;;;;;;5.47;1.92;;;;;;;;;;5131174;28;20097;-71
2021/08/09 14:17:33;;;;;;;5.10;2.05;;;;;;;;;;5130664;28;20031;-71
2021/08/09 14:20:00;;;;;;;4.28;1.75;;;;;;;;;;5130226;28;20030;-70
2021/08/09 14:22:25;;;;;;;7.85;2.40;;;;;;;;;;5131384;28;20031;-70
2021/08/09 14:24:51;;;;;;;5.63;2.10;;;;;;;;;;5128767;27;20131;-70
2021/08/09 14:27:17;;;;;;;7.60;2.00;;;;;;;;;;5134392;27;20268;-70
2021/08/09 14:29:43;;;;;;;8.68;2.17;;;;;;;;;;5135146;27;20034;-69
2021/08/09 14:32:09;;;;;;;6.38;2.05;;;;;;;;;;5134825;27;20076;-69
2021/08/09 14:34:34;;;;;;;4.55;1.90;;;;;;;;;;5130478;27;20084;-70
2021/08/09 14:37:03;;;;;;;5.18;1.70;;;;;;;;;;5134349;27;20031;-70
2021/08/09 14:39:29;;;;;;;5.43;2.15;;;;;;;;;;5134785;27;20030;-70
2021/08/09 14:41:55;;;;;;;4.85;1.73;;;;;;;;;;5134999;27;20027;-71
2021/08/09 14:44:21;;;;;;;4.55;1.65;;;;;;;;;;5135121;27;20030;-70
2021/08/09 14:46:46;;;;;;;6.82;2.00;;;;;;;;;;5134601;27;20019;-70